Time;durP1;ratioP1;P1;durP2;ratioP2;P2;SDS_P1;SDS_P2;PMS_P1;PMS_P2;Temp;Humidity;BMP_temperature;BMP_pressure;BME280_temperature;BME280_humidity;BME280_pressure;Samples;Min_cycle;Max_cycle;Signal;HPM_P1;HPM_P2
2021/04/13 00:02:26;;;;;;;13.52;11.32;;;9.40;86.80;;;;;;5047564;28;20108;-66
2021/04/13 00:04:56;;;;;;;16.55;10.80;;;9.40;86.80;;;;;;5048784;28;20025;-66
2021/04/13 00:07:25;;;;;;;13.82;11.80;;;9.40;86.60;;;;;;5049001;28;20095;-66
2021/04/13 00:09:51;;;;;;;14.75;12.43;;;9.40;86.90;;;;;;5048634;28;20085;-66
2021/04/13 00:12:19;;;;;;;;;;;9.30;87.00;;;;;;5048819;28;20029;-66
2021/04/13 00:14:51;;;;;;;16.67;12.57;;;9.30;86.90;;;;;;5048775;28;19931;-66
2021/04/13 00:17:20;;;;;;;14.90;11.23;;;9.30;87.20;;;;;;5048883;28;20036;-66
2021/04/13 00:20:11;;;;;;;15.73;11.65;;;9.30;87.20;;;;;;5048590;28;20036;-66
2021/04/13 00:22:39;;;;;;;13.23;11.10;;;9.20;87.20;;;;;;5047496;28;20033;-66
2021/04/13 00:25:05;;;;;;;13.43;10.38;;;9.10;87.00;;;;;;5048547;28;20033;-66
2021/04/13 00:27:31;;;;;;;12.43;9.75;;;9.20;87.00;;;;;;5048470;28;20040;-66
2021/04/13 00:30:11;;;;;;;;;;;9.20;86.60;;;;;;5048938;28;20112;-66
2021/04/13 00:32:38;;;;;;;10.05;7.85;;;9.20;86.00;;;;;;5048539;28;20381;-66
2021/04/13 00:35:27;;;;;;;12.07;8.65;;;9.20;85.40;;;;;;5048559;28;20100;-65
2021/04/13 00:38:14;;;;;;;10.82;8.57;;;9.20;85.20;;;;;;5048230;28;20429;-67
2021/04/13 00:40:41;;;;;;;10.57;8.50;;;9.20;84.60;;;;;;5048277;28;20032;-67
2021/04/13 00:43:10;;;;;;;11.15;8.98;;;9.20;84.30;;;;;;5048442;28;20551;-66
2021/04/13 00:45:39;;;;;;;9.40;7.90;;;9.10;83.90;;;;;;5047929;28;20057;-65
2021/04/13 00:48:07;;;;;;;10.68;8.48;;;9.10;83.50;;;;;;5046974;28;20025;-67
2021/04/13 00:50:46;;;;;;;10.60;8.63;;;9.10;83.40;;;;;;5048187;28;20382;-68
2021/04/13 00:53:17;;;;;;;11.45;7.65;;;9.00;82.60;;;;;;5048227;28;20032;-68
2021/04/13 00:55:56;;;;;;;12.57;7.93;;;9.00;83.10;;;;;;5047977;28;20037;-67
2021/04/13 00:58:40;;;;;;;12.35;9.07;;;9.00;83.70;;;;;;5048166;28;20074;-67
2021/04/13 01:01:16;;;;;;;10.18;8.52;;;9.00;83.50;;;;;;5048143;28;20530;-67
2021/04/13 01:03:46;;;;;;;;;;;8.90;84.20;;;;;;5048611;28;20126;-67
2021/04/13 01:06:19;;;;;;;13.85;9.80;;;8.80;84.80;;;;;;5048105;28;19916;-67
2021/04/13 01:08:45;;;;;;;11.52;9.60;;;8.60;85.60;;;;;;5048245;28;20040;-67
2021/04/13 01:11:15;;;;;;;;;;;8.50;85.80;;;;;;5048639;28;20378;-66
2021/04/13 01:13:49;;;;;;;13.02;8.98;;;8.50;86.50;;;;;;5048064;28;20448;-67
2021/04/13 01:16:17;;;;;;;12.35;9.65;;;8.50;86.40;;;;;;5048130;28;20029;-67
2021/04/13 01:18:46;;;;;;;11.80;9.90;;;8.50;86.40;;;;;;5048048;28;20033;-67
2021/04/13 01:21:38;;;;;;;10.80;8.48;;;8.50;86.40;;;;;;5047971;28;20490;-67
2021/04/13 01:24:30;;;;;;;10.23;8.57;;;8.60;86.50;;;;;;5050621;28;20056;-66
2021/04/13 01:26:54;;;;;;;12.25;9.98;;;8.60;86.30;;;;;;5051433;28;20045;-67
2021/04/13 01:29:25;;;;;;;13.35;9.77;;;8.70;85.90;;;;;;5051882;28;20440;-67
2021/04/13 01:31:55;;;;;;;12.48;9.43;;;8.60;85.60;;;;;;5051666;28;20037;-67
2021/04/13 01:34:28;;;;;;;10.00;8.15;;;8.60;85.50;;;;;;5051755;28;20456;-66
2021/04/13 01:40:17;;;;;;;15.50;10.63;;;8.70;85.70;;;;;;5051491;28;20343;-67
2021/04/13 01:42:45;;;;;;;11.13;8.38;;;8.70;85.60;;;;;;5051620;28;20023;-67
2021/04/13 01:45:19;;;;;;;11.32;9.68;;;8.70;85.40;;;;;;5051392;28;20064;-66
2021/04/13 01:47:46;;;;;;;12.25;9.90;;;8.70;85.40;;;;;;5051426;28;20060;-66
2021/04/13 01:50:20;;;;;;;13.15;9.82;;;8.70;85.30;;;;;;5051348;28;20048;-66
2021/04/13 01:52:49;;;;;;;13.25;9.88;;;8.70;85.10;;;;;;5051695;28;20084;-67
2021/04/13 01:55:30;;;;;;;15.02;9.18;;;8.60;85.20;;;;;;5050137;28;20131;-67
2021/04/13 01:58:09;;;;;;;11.38;9.23;;;8.60;85.40;;;;;;5051465;28;20100;-67
2021/04/13 02:00:51;;;;;;;13.25;9.02;;;8.50;85.20;;;;;;5051346;28;20032;-66
2021/04/13 02:03:33;;;;;;;13.25;9.32;;;8.50;85.60;;;;;;5051332;28;20118;-66
2021/04/13 02:06:09;;;;;;;10.95;8.93;;;8.50;85.60;;;;;;5051227;28;20041;-67
2021/04/13 02:08:49;;;;;;;14.20;9.93;;;8.50;85.70;;;;;;5051057;28;20025;-67
2021/04/13 02:11:25;;;;;;;12.35;9.93;;;8.50;85.60;;;;;;5049801;28;20029;-67
2021/04/13 02:13:59;;;;;;;12.20;9.82;;;8.50;85.40;;;;;;5050916;28;20543;-64
2021/04/13 02:16:31;;;;;;;12.13;8.23;;;8.50;85.50;;;;;;5050954;28;20040;-67
2021/04/13 02:19:00;;;;;;;9.73;8.25;;;8.50;85.60;;;;;;5050771;28;20527;-67
2021/04/13 02:21:47;;;;;;;14.68;9.20;;;8.50;85.70;;;;;;5050963;28;20036;-67
2021/04/13 02:24:22;;;;;;;11.35;9.13;;;8.60;85.60;;;;;;5050807;28;20492;-66
2021/04/13 02:26:53;;;;;;;11.55;8.73;;;8.50;85.50;;;;;;5050765;28;20064;-67
2021/04/13 02:29:22;;;;;;;10.70;8.30;;;8.50;85.50;;;;;;5049427;28;20495;-67
2021/04/13 02:31:58;;;;;;;12.23;8.50;;;8.40;85.40;;;;;;5050640;28;20032;-67
2021/04/13 02:34:25;;;;;;;11.50;9.05;;;8.40;85.50;;;;;;5050383;28;20029;-67
2021/04/13 02:36:59;;;;;;;12.00;9.25;;;8.40;85.30;;;;;;5050671;28;20028;-67
2021/04/13 02:39:28;;;;;;;13.35;10.35;;;8.40;85.10;;;;;;5050673;28;20558;-67
2021/04/13 02:42:00;;;;;;;15.88;12.90;;;8.40;85.40;;;;;;5050529;28;20036;-67
2021/04/13 02:44:27;;;;;;;13.68;10.57;;;8.40;85.50;;;;;;5050396;28;20405;-67
2021/04/13 02:46:56;;;;;;;11.35;8.90;;;8.40;85.40;;;;;;5050385;28;20037;-66
2021/04/13 02:49:24;;;;;;;11.82;8.90;;;8.30;85.50;;;;;;5050315;28;20115;-67
2021/04/13 02:51:56;;;;;;;13.63;9.13;;;8.30;85.50;;;;;;5050174;28;20060;-67
2021/04/13 02:54:29;;;;;;;11.70;9.15;;;8.20;85.60;;;;;;5050328;28;20040;-66
2021/04/13 02:57:18;;;;;;;11.13;8.93;;;8.20;85.80;;;;;;5050156;28;20029;-67
2021/04/13 02:59:44;;;;;;;12.98;10.23;;;8.20;86.00;;;;;;5050118;28;20028;-66
2021/04/13 03:02:13;;;;;;;;;;;8.20;85.90;;;;;;5050490;28;20028;-67
2021/04/13 03:04:42;;;;;;;10.82;8.30;;;8.30;85.60;;;;;;5050121;28;19909;-66
2021/04/13 03:07:21;;;;;;;11.80;8.60;;;8.30;85.80;;;;;;5050003;28;20037;-66
2021/04/13 03:09:50;;;;;;;12.48;9.18;;;8.40;85.30;;;;;;5048425;28;20021;-66
2021/04/13 03:12:16;;;;;;;10.52;8.70;;;8.40;85.30;;;;;;5049960;28;20033;-66
2021/04/13 03:14:48;;;;;;;11.57;9.23;;;8.40;85.40;;;;;;5049980;28;20443;-67
2021/04/13 03:17:18;;;;;;;12.05;9.43;;;8.30;85.80;;;;;;5048690;28;20116;-66
2021/04/13 03:19:46;;;;;;;13.93;9.70;;;8.30;86.30;;;;;;5049542;28;20052;-67
2021/04/13 03:22:15;;;;;;;10.55;8.77;;;8.40;86.50;;;;;;5049517;28;20028;-67
2021/04/13 03:24:44;;;;;;;14.25;10.35;;;8.40;87.20;;;;;;5049868;28;20029;-67
2021/04/13 03:27:14;;;;;;;19.67;12.60;;;8.60;88.50;;;;;;5049780;28;20037;-67
2021/04/13 03:29:46;;;;;;;20.08;13.48;;;8.60;90.20;;;;;;5049490;28;20028;-66
2021/04/13 03:32:14;;;;;;;27.02;15.45;;;8.80;90.60;;;;;;5049532;28;20025;-67
2021/04/13 03:34:43;;;;;;;22.77;14.73;;;8.80;90.60;;;;;;5049657;28;20033;-65
2021/04/13 03:37:11;;;;;;;19.73;14.80;;;8.80;90.80;;;;;;5048679;28;20021;-67
2021/04/13 03:39:41;;;;;;;19.80;13.45;;;8.90;90.60;;;;;;5047968;28;20033;-66
2021/04/13 03:42:20;;;;;;;23.98;13.43;;;9.00;90.40;;;;;;5047930;28;20036;-66
2021/04/13 03:44:46;;;;;;;22.60;15.48;;;8.90;90.60;;;;;;5048861;28;20059;-67
2021/04/13 03:47:21;;;;;;;21.52;16.23;;;8.90;90.30;;;;;;5048592;28;20025;-67
2021/04/13 03:49:48;;;;;;;22.13;14.57;;;8.80;90.00;;;;;;5049023;28;20116;-67
2021/04/13 03:52:21;;;;;;;20.25;13.30;;;8.80;89.90;;;;;;5048076;28;20032;-68
2021/04/13 03:54:48;;;;;;;14.27;11.85;;;8.80;89.40;;;;;;5049234;28;20033;-65
2021/04/13 03:57:30;;;;;;;15.65;12.30;;;8.80;89.60;;;;;;5049124;28;20128;-66
2021/04/13 03:59:58;;;;;;;20.73;14.60;;;8.80;89.50;;;;;;5048828;28;20082;-67
2021/04/13 04:02:24;;;;;;;18.50;13.95;;;8.80;90.00;;;;;;5048974;28;20033;-68
2021/04/13 04:05:02;;;;;;;;;;;8.80;90.10;;;;;;5048114;28;20083;-68
2021/04/13 04:07:39;;;;;;;19.10;13.05;;;8.80;90.00;;;;;;5048933;28;19949;-68
2021/04/13 04:10:41;;;;;;;18.73;11.80;;;8.80;90.10;;;;;;5048876;28;20489;-68
2021/04/13 04:13:17;;;;;;;13.02;10.93;;;8.80;90.00;;;;;;5048770;28;20033;-68
2021/04/13 04:15:49;;;;;;;13.32;10.38;;;8.90;89.70;;;;;;5047418;28;20025;-67
2021/04/13 04:18:31;;;;;;;14.88;10.77;;;8.90;89.10;;;;;;5048830;28;20071;-67
2021/04/13 04:21:02;;;;;;;11.80;9.20;;;8.80;88.50;;;;;;5048609;28;20039;-67
2021/04/13 04:23:31;;;;;;;15.35;9.45;;;8.80;88.00;;;;;;5048589;28;20028;-67
2021/04/13 04:26:06;;;;;;;15.25;10.27;;;8.70;87.80;;;;;;5047233;28;20045;-67
2021/04/13 04:28:38;;;;;;;11.43;9.00;;;8.70;87.60;;;;;;5048374;28;20021;-67
2021/04/13 04:31:36;;;;;;;13.55;10.13;;;8.70;87.80;;;;;;5047186;28;20398;-68
2021/04/13 04:34:14;;;;;;;12.30;9.23;;;8.70;87.40;;;;;;5047061;28;20032;-69
2021/04/13 04:36:42;;;;;;;13.43;10.52;;;8.70;87.70;;;;;;5048141;28;20029;-68
2021/04/13 04:39:32;;;;;;;13.10;10.43;;;8.70;87.40;;;;;;5048137;28;20115;-68
2021/04/13 04:42:11;;;;;;;12.85;9.30;;;8.60;87.50;;;;;;5048264;28;20572;-68
2021/04/13 04:44:37;;;;;;;12.05;9.40;;;8.60;87.90;;;;;;5046809;28;20048;-67
2021/04/13 04:47:37;;;;;;;15.43;11.07;;;8.70;87.80;;;;;;5046737;28;20497;-67
2021/04/13 04:50:11;;;;;;;15.40;11.95;;;8.70;87.60;;;;;;5048269;28;20029;-69
2021/04/13 04:52:37;;;;;;;17.23;12.25;;;8.80;87.90;;;;;;5048347;28;20657;-68
2021/04/13 04:55:03;;;;;;;;;;;8.80;88.00;;;;;;5048602;28;20025;-68
2021/04/13 04:57:29;;;;;;;21.92;15.45;;;8.80;87.70;;;;;;5047943;28;19919;-68
2021/04/13 04:59:54;;;;;;;;;;;8.80;87.80;;;;;;5048457;28;20025;-68
2021/04/13 05:02:20;;;;;;;20.17;14.15;;;8.80;87.70;;;;;;5048280;28;20356;-68
2021/04/13 05:04:46;;;;;;;;;;;8.90;87.80;;;;;;5048446;28;20036;-67
2021/04/13 05:07:11;;;;;;;21.50;15.75;;;8.90;87.90;;;;;;5047422;28;19959;-68
2021/04/13 05:09:37;;;;;;;;;;;9.00;88.10;;;;;;5046975;28;20064;-68
2021/04/13 05:12:04;;;;;;;15.80;11.15;;;9.00;88.20;;;;;;5048019;28;19958;-68
2021/04/13 05:14:30;;;;;;;14.90;11.07;;;9.10;88.10;;;;;;5048041;28;20038;-67
2021/04/13 05:16:55;;;;;;;;;;;9.10;87.80;;;;;;5048577;28;20037;-68
2021/04/13 05:19:21;;;;;;;17.10;11.10;;;9.10;87.40;;;;;;5047845;28;19915;-69
2021/04/13 05:21:47;;;;;;;;;;;9.10;87.20;;;;;;5048495;28;20174;-67
2021/04/13 05:24:13;;;;;;;14.93;10.85;;;9.00;87.40;;;;;;5047344;28;20365;-67
2021/04/13 05:26:38;;;;;;;;;;;9.00;87.80;;;;;;5047279;28;20124;-67
2021/04/13 05:29:07;;;;;;;14.68;11.95;;;9.00;87.60;;;;;;5047438;28;19916;-68
2021/04/13 05:31:33;;;;;;;14.50;11.27;;;9.00;87.80;;;;;;5047736;28;20035;-68
2021/04/13 05:33:59;;;;;;;13.80;11.75;;;9.00;87.70;;;;;;5047717;28;20116;-68
2021/04/13 05:36:24;;;;;;;;;;;9.00;87.70;;;;;;5048091;28;20124;-67
2021/04/13 05:38:50;;;;;;;15.80;12.18;;;9.00;88.00;;;;;;5042168;28;20446;-67
2021/04/13 05:41:15;;;;;;;;;;;9.10;88.30;;;;;;5046918;28;20029;-67
2021/04/13 05:43:43;;;;;;;23.15;16.75;;;9.20;87.90;;;;;;5046165;28;19916;-67
2021/04/13 05:46:13;;;;;;;23.02;15.63;;;9.20;88.20;;;;;;5046311;28;20029;-67
2021/04/13 05:48:39;;;;;;;17.73;14.10;;;9.20;88.90;;;;;;5046444;28;20551;-67
2021/04/13 05:51:05;;;;;;;;;;;9.30;88.60;;;;;;5046919;28;20021;-67
2021/04/13 05:53:30;;;;;;;19.35;13.90;;;9.30;88.60;;;;;;5046398;28;19954;-67
2021/04/13 05:55:56;;;;;;;;;;;9.30;88.90;;;;;;5046767;28;20028;-67
2021/04/13 05:58:31;;;;;;;27.05;16.33;;;9.30;89.40;;;;;;5046271;28;19963;-67
2021/04/13 06:01:00;;;;;;;18.40;14.45;;;9.30;90.00;;;;;;5047653;28;20673;-68
2021/04/13 06:03:26;;;;;;;22.83;16.38;;;9.20;90.30;;;;;;5047740;28;20116;-67
2021/04/13 06:05:54;;;;;;;;;;;9.30;90.50;;;;;;5047768;28;20508;-67
2021/04/13 06:08:20;;;;;;;22.38;15.23;;;9.40;90.70;;;;;;5047535;28;19908;-67
2021/04/13 06:10:45;;;;;;;;;;;9.40;90.50;;;;;;5051462;28;20571;-68
2021/04/13 06:13:12;;;;;;;20.98;15.90;;;9.50;90.40;;;;;;5051229;28;19915;-67
2021/04/13 06:15:38;;;;;;;22.42;17.38;;;9.70;90.50;;;;;;5049589;28;20029;-67
2021/04/13 06:18:03;;;;;;;;;;;9.80;90.40;;;;;;5051371;28;20021;-66
2021/04/13 06:20:30;;;;;;;22.27;17.17;;;9.90;90.40;;;;;;5050955;28;19944;-67
2021/04/13 06:22:58;;;;;;;23.63;17.08;;;10.00;90.20;;;;;;5050884;28;20033;-67
2021/04/13 06:25:26;;;;;;;24.75;16.98;;;10.10;89.90;;;;;;5049659;28;20032;-68
2021/04/13 06:27:53;;;;;;;27.60;17.90;;;10.20;89.20;;;;;;5049054;28;20040;-68
2021/04/13 06:30:20;;;;;;;21.77;16.85;;;10.30;88.90;;;;;;5049444;28;20079;-67
2021/04/13 06:32:46;;;;;;;23.52;17.00;;;10.50;88.70;;;;;;5050779;28;20040;-68
2021/04/13 06:35:11;;;;;;;;;;;10.70;88.40;;;;;;5051208;28;20428;-67
2021/04/13 06:37:40;;;;;;;23.20;16.52;;;10.80;88.00;;;;;;5050097;28;19905;-66
2021/04/13 06:40:10;;;;;;;22.50;16.77;;;11.10;87.50;;;;;;5050775;28;20029;-68
2021/04/13 06:42:38;;;;;;;21.50;15.15;;;11.30;86.70;;;;;;5050527;28;20107;-67
2021/04/13 06:45:55;;;;;;;18.65;15.35;;;11.40;86.10;;;;;;5050122;28;20053;-67
2021/04/13 06:48:32;;;;;;;20.70;14.70;;;11.50;85.40;;;;;;5016514;28;20044;-69
2021/04/13 06:51:25;;;;;;;20.02;13.90;;;11.70;85.30;;;;;;5050321;28;20115;-68
2021/04/13 06:54:05;;;;;;;18.85;14.55;;;11.80;85.10;;;;;;5050032;28;20021;-68
2021/04/13 06:56:50;;;;;;;18.27;13.40;;;11.90;84.20;;;;;;5050251;28;20047;-68
2021/04/13 06:59:35;;;;;;;19.30;13.48;;;12.00;84.90;;;;;;5050114;28;20505;-68
2021/04/13 07:02:05;;;;;;;24.60;15.88;;;12.00;84.70;;;;;;5050341;28;20025;-67
2021/04/13 07:04:40;;;;;;;27.35;18.73;;;12.10;84.90;;;;;;5048779;28;20082;-68
2021/04/13 07:07:09;;;;;;;30.45;20.30;;;12.10;83.90;;;;;;5049894;28;20079;-68
2021/04/13 07:09:46;;;;;;;34.92;21.83;;;12.00;84.30;;;;;;5049723;28;20087;-68
2021/04/13 07:12:40;;;;;;;31.65;20.23;;;12.00;84.40;;;;;;5049558;28;20028;-69
2021/04/13 07:15:19;;;;;;;23.55;16.05;;;12.20;85.40;;;;;;5047222;28;20025;-67
2021/04/13 07:17:54;;;;;;;19.25;15.32;;;12.20;85.60;;;;;;5046860;28;20037;-67
2021/04/13 07:20:24;;;;;;;24.25;18.38;;;12.20;85.60;;;;;;5045706;28;20394;-68
2021/04/13 07:22:57;;;;;;;28.00;20.55;;;12.30;84.50;;;;;;5048049;28;20424;-68
2021/04/13 07:25:31;;;;;;;28.25;19.85;;;12.20;84.40;;;;;;5046980;28;20090;-68
2021/04/13 07:28:03;;;;;;;23.58;15.90;;;12.30;84.00;;;;;;5048826;28;20036;-68
2021/04/13 07:30:45;;;;;;;17.10;14.25;;;12.20;84.00;;;;;;5049269;28;20020;-68
2021/04/13 07:33:19;;;;;;;21.88;14.98;;;12.20;82.90;;;;;;5048443;28;20040;-68
2021/04/13 07:35:45;;;;;;;17.88;14.77;;;12.20;83.60;;;;;;5046256;28;20049;-68
2021/04/13 07:38:29;;;;;;;25.70;15.25;;;12.30;83.60;;;;;;5046641;28;20025;-68
2021/04/13 07:41:07;;;;;;;17.20;13.35;;;12.30;82.90;;;;;;5047614;28;20023;-68
2021/04/13 07:43:39;;;;;;;15.25;13.07;;;12.50;82.60;;;;;;5047219;28;20039;-69
2021/04/13 07:46:17;;;;;;;20.98;14.18;;;12.60;82.40;;;;;;5049143;28;20051;-69
2021/04/13 07:49:14;;;;;;;17.30;13.70;;;12.70;81.40;;;;;;5048949;28;20021;-69
2021/04/13 07:51:43;;;;;;;;;;;12.80;81.20;;;;;;5047745;28;20492;-67
2021/04/13 07:54:38;;;;;;;37.47;24.25;;;12.80;80.20;;;;;;5049081;28;20411;-67
2021/04/13 07:57:19;;;;;;;25.30;15.98;;;13.00;79.80;;;;;;5047598;28;20025;-67
2021/04/13 08:00:07;;;;;;;17.27;12.63;;;13.00;79.60;;;;;;5047322;28;20120;-68
2021/04/13 08:02:33;;;;;;;15.02;10.63;;;13.20;78.80;;;;;;5047762;28;20489;-68
2021/04/13 08:04:59;;;;;;;;;;;13.20;78.60;;;;;;5049384;28;20055;-67
2021/04/13 08:07:30;;;;;;;10.75;8.30;;;13.20;78.20;;;;;;5047587;28;20392;-68
2021/04/13 08:10:26;;;;;;;16.17;9.23;;;13.10;78.20;;;;;;5048807;28;20033;-68
2021/04/13 08:12:56;;;;;;;9.63;7.57;;;13.10;78.00;;;;;;5048788;28;20025;-68
2021/04/13 08:15:52;;;;;;;17.13;12.82;;;13.20;78.00;;;;;;5048686;28;20039;-68
2021/04/13 08:18:35;;;;;;;13.27;11.65;;;13.20;77.90;;;;;;5047410;28;20040;-68
2021/04/13 08:21:30;;;;;;;13.18;9.70;;;13.40;77.20;;;;;;5048550;28;20113;-68
2021/04/13 08:23:55;;;;;;;11.20;8.27;;;13.70;76.70;;;;;;5047215;28;20036;-68
2021/04/13 08:26:30;;;;;;;;;;;14.20;76.00;;;;;;5049008;28;20090;-68
2021/04/13 08:29:16;;;;;;;13.32;8.27;;;14.60;73.40;;;;;;5047268;28;19998;-68
2021/04/13 08:35:11;;;;;;;23.80;16.35;;;15.20;71.90;;;;;;5048835;28;20047;-69
2021/04/13 08:38:16;;;;;;;24.50;16.55;;;15.50;69.90;;;;;;5048374;28;20074;-68
2021/04/13 08:41:13;;;;;;;28.13;19.80;;;15.40;70.10;;;;;;5048475;28;20032;-68
2021/04/13 08:43:54;;;;;;;14.20;8.27;;;15.60;69.20;;;;;;5047915;28;20436;-68
2021/04/13 08:46:27;;;;;;;11.55;7.70;;;15.50;67.10;;;;;;5048302;28;20045;-69
2021/04/13 08:49:14;;;;;;;16.95;11.50;;;15.20;68.40;;;;;;5048217;28;20021;-68
2021/04/13 08:51:50;;;;;;;14.48;8.68;;;15.10;69.50;;;;;;5048140;28;20139;-69
2021/04/13 08:54:18;;;;;;;11.70;7.55;;;15.10;68.60;;;;;;5048289;28;20025;-69
2021/04/13 08:57:11;;;;;;;17.13;7.68;;;15.00;69.40;;;;;;5048353;28;20032;-68
2021/04/13 08:59:45;;;;;;;13.70;7.68;;;15.00;70.00;;;;;;5047885;28;20382;-68
2021/04/13 09:02:33;;;;;;;14.77;9.45;;;14.90;70.40;;;;;;5046910;28;20500;-68
2021/04/13 09:05:20;;;;;;;11.75;8.15;;;14.90;70.70;;;;;;5048134;28;20132;-68
2021/04/13 09:07:53;;;;;;;11.30;8.40;;;14.80;70.50;;;;;;5046648;28;20025;-68
2021/04/13 09:10:41;;;;;;;10.60;8.00;;;14.70;72.10;;;;;;5048012;28;20033;-68
2021/04/13 09:13:36;;;;;;;16.85;8.10;;;14.70;71.60;;;;;;5048084;28;20056;-68
2021/04/13 09:16:22;;;;;;;15.27;8.50;;;14.70;71.00;;;;;;5046813;28;20044;-68
2021/04/13 09:18:55;;;;;;;11.05;7.88;;;14.70;70.50;;;;;;5047972;28;20052;-67
2021/04/13 09:21:25;;;;;;;11.95;7.47;;;14.80;71.30;;;;;;5048025;28;20040;-69
2021/04/13 09:24:12;;;;;;;10.60;7.75;;;14.90;70.60;;;;;;5047923;28;20856;-68
2021/04/13 09:26:56;;;;;;;15.50;7.60;;;15.10;70.90;;;;;;5046580;28;20047;-69
2021/04/13 09:29:39;;;;;;;11.98;8.57;;;15.30;69.60;;;;;;5047941;28;20040;-68
2021/04/13 09:32:23;;;;;;;14.07;8.98;;;15.40;69.10;;;;;;5047991;28;20060;-68
2021/04/13 09:35:27;;;;;;;19.25;9.30;;;15.50;69.30;;;;;;5047835;28;20029;-69
2021/04/13 09:38:18;;;;;;;13.38;9.38;;;15.70;68.00;;;;;;5047653;28;20043;-69
2021/04/13 09:41:22;;;;;;;14.13;9.50;;;15.80;67.50;;;;;;5047966;28;20068;-69
2021/04/13 09:44:11;;;;;;;16.95;8.63;;;15.90;67.10;;;;;;5046915;28;20493;-69
2021/04/13 09:47:01;;;;;;;12.75;8.00;;;16.00;68.40;;;;;;5051707;28;20033;-68
2021/04/13 09:50:02;;;;;;;11.38;7.40;;;16.30;68.10;;;;;;5051691;28;20091;-69
2021/04/13 09:53:01;;;;;;;11.10;8.10;;;16.60;67.70;;;;;;5066430;28;20869;-68
2021/04/13 09:55:45;;;;;;;16.95;7.93;;;16.80;65.50;;;;;;5050513;28;20270;-66
2021/04/13 09:58:20;;;;;;;9.65;7.55;;;16.80;65.30;;;;;;5051275;28;20495;-68
2021/04/13 10:01:19;;;;;;;16.35;7.65;;;16.70;65.50;;;;;;5051270;28;20401;-68
2021/04/13 10:04:06;;;;;;;16.63;8.30;;;16.30;66.20;;;;;;5049715;28;20052;-68
2021/04/13 10:06:37;;;;;;;11.20;8.15;;;16.00;67.70;;;;;;5051210;28;20052;-68
2021/04/13 10:09:29;;;;;;;9.40;7.18;;;15.80;67.90;;;;;;5049673;28;20028;-67
2021/04/13 10:12:16;;;;;;;12.68;9.07;;;15.80;67.90;;;;;;5050711;28;20028;-69
2021/04/13 10:14:54;;;;;;;20.55;9.20;;;15.80;68.10;;;;;;5049137;28;20029;-67
2021/04/13 10:17:40;;;;;;;11.23;8.55;;;15.80;68.40;;;;;;5051047;28;20029;-68
2021/04/13 10:20:08;;;;;;;14.85;10.38;;;15.90;67.90;;;;;;5049589;28;20036;-68
2021/04/13 10:22:56;;;;;;;14.50;9.35;;;16.10;67.30;;;;;;5050943;28;20059;-69
2021/04/13 10:25:48;;;;;;;14.25;9.70;;;16.20;66.40;;;;;;5050865;28;20400;-69
2021/04/13 10:28:28;;;;;;;18.60;10.93;;;16.30;65.70;;;;;;5050813;28;20090;-69
2021/04/13 10:31:03;;;;;;;13.80;8.52;;;16.20;65.70;;;;;;5050867;28;20017;-68
2021/04/13 10:34:06;;;;;;;23.38;13.80;;;16.20;64.90;;;;;;5051000;28;20440;-68
2021/04/13 10:36:34;;;;;;;36.15;17.85;;;16.00;65.30;;;;;;5050767;28;20074;-68
2021/04/13 10:39:34;;;;;;;43.95;22.33;;;15.60;66.20;;;;;;5050565;28;20033;-69
2021/04/13 10:42:44;;;;;;;24.52;13.38;;;15.40;67.10;;;;;;5050547;28;20112;-68
2021/04/13 10:45:40;;;;;;;16.75;10.73;;;15.20;68.00;;;;;;5052573;28;20135;-69
2021/04/13 10:48:41;;;;;;;19.45;12.52;;;15.00;69.50;;;;;;5049239;28;20057;-68
2021/04/13 10:51:25;;;;;;;21.92;12.73;;;14.80;70.20;;;;;;5049070;28;20053;-68
2021/04/13 10:54:12;;;;;;;20.30;13.40;;;14.60;70.10;;;;;;5050219;28;20037;-67
2021/04/13 10:56:44;;;;;;;;;;;14.50;70.30;;;;;;5050602;28;20039;-68
2021/04/13 10:59:34;;;;;;;27.90;13.25;;;14.40;70.90;;;;;;5050168;28;19948;-68
2021/04/13 11:02:32;;;;;;;17.50;10.25;;;14.20;71.40;;;;;;5050499;28;20040;-68
2021/04/13 11:05:19;;;;;;;21.52;11.20;;;14.00;72.10;;;;;;5049912;28;20563;-68
2021/04/13 11:08:09;;;;;;;21.30;11.43;;;13.90;72.50;;;;;;5048595;28;20387;-69
2021/04/13 11:10:57;;;;;;;18.52;10.77;;;13.70;73.10;;;;;;5008337;28;20045;-68
2021/04/13 11:13:51;;;;;;;17.63;11.68;;;13.50;73.90;;;;;;5028900;28;20032;-68
2021/04/13 11:16:43;;;;;;;18.02;10.52;;;13.50;73.70;;;;;;5030074;28;20022;-68
2021/04/13 11:19:37;;;;;;;13.35;9.52;;;13.30;74.80;;;;;;5045018;28;20464;-68
2021/04/13 11:22:36;;;;;;;16.38;10.88;;;13.30;75.00;;;;;;5042379;28;20036;-68
2021/04/13 11:25:10;;;;;;;21.17;10.77;;;13.20;75.10;;;;;;5048460;28;20427;-68
2021/04/13 11:28:02;;;;;;;18.17;12.10;;;13.00;75.90;;;;;;5047957;28;20052;-68
2021/04/13 11:30:58;;;;;;;13.25;10.57;;;12.80;76.50;;;;;;5048591;28;20033;-69
2021/04/13 11:33:54;;;;;;;18.50;12.40;;;12.80;77.30;;;;;;5048723;28;20029;-68
2021/04/13 11:37:04;;;;;;;14.77;11.75;;;12.70;77.50;;;;;;5048276;28;20032;-68
2021/04/13 11:39:54;;;;;;;18.38;13.52;;;12.60;78.20;;;;;;5049367;28;20091;-69
2021/04/13 11:42:24;;;;;;;20.08;14.50;;;12.30;79.10;;;;;;5049677;28;20033;-68
2021/04/13 11:45:26;;;;;;;23.85;19.08;;;12.20;79.80;;;;;;5049196;28;20045;-69
2021/04/13 11:48:24;;;;;;;21.65;15.82;;;12.30;79.90;;;;;;5048948;28;20044;-68
2021/04/13 11:51:10;;;;;;;18.20;13.23;;;12.20;79.60;;;;;;5048840;28;20029;-68
2021/04/13 11:53:45;;;;;;;13.55;9.15;;;12.10;79.60;;;;;;5048369;28;20029;-67
2021/04/13 11:56:23;;;;;;;13.15;8.38;;;12.00;79.60;;;;;;5048133;28;20485;-67
2021/04/13 11:59:17;;;;;;;17.38;8.35;;;11.70;80.10;;;;;;5049179;28;20055;-68
2021/04/13 12:02:15;;;;;;;11.20;7.75;;;11.70;80.70;;;;;;5049070;28;20365;-68
2021/04/13 12:04:55;;;;;;;12.63;8.38;;;11.50;81.30;;;;;;5048075;28;20037;-68
2021/04/13 12:07:53;;;;;;;14.93;8.18;;;11.30;82.50;;;;;;5048276;28;20032;-68
2021/04/13 12:10:31;;;;;;;9.48;6.43;;;11.20;83.20;;;;;;5025797;28;20044;-69
2021/04/13 12:13:02;;;;;;;11.95;7.18;;;11.20;83.60;;;;;;5048987;28;20086;-68
2021/04/13 12:15:31;;;;;;;10.88;6.30;;;11.10;85.20;;;;;;5048804;28;20037;-67
2021/04/13 12:17:57;;;;;;;12.90;6.57;;;11.00;85.10;;;;;;5048688;28;20489;-68
2021/04/13 12:20:27;;;;;;;13.05;7.00;;;10.90;85.90;;;;;;5048496;28;20030;-67
2021/04/13 12:23:05;;;;;;;9.95;6.60;;;10.90;86.90;;;;;;5048522;28;20033;-67
2021/04/13 12:25:42;;;;;;;10.10;7.18;;;10.80;87.20;;;;;;5047790;28;20025;-69
2021/04/13 12:28:09;;;;;;;8.65;5.35;;;10.80;87.40;;;;;;5047891;28;20054;-68
2021/04/13 12:30:40;;;;;;;8.07;6.13;;;10.70;87.80;;;;;;5046440;28;20025;-67
2021/04/13 12:33:07;;;;;;;9.52;5.88;;;10.60;88.40;;;;;;5047768;28;20038;-68
2021/04/13 12:35:48;;;;;;;11.45;6.40;;;10.60;88.30;;;;;;5047692;28;20477;-67
2021/04/13 12:38:41;;;;;;;13.27;6.25;;;10.60;88.50;;;;;;5047658;28;20037;-67
2021/04/13 12:41:15;;;;;;;9.65;6.57;;;10.60;88.90;;;;;;5047712;28;20100;-67
2021/04/13 12:44:09;;;;;;;9.75;5.63;;;10.50;89.00;;;;;;5047363;28;20033;-67
2021/04/13 12:46:35;;;;;;;13.57;5.82;;;10.50;89.00;;;;;;5044322;28;20052;-67
2021/04/13 12:49:12;;;;;;;;;;;10.50;90.00;;;;;;5047530;28;20110;-67
2021/04/13 12:51:38;;;;;;;7.55;5.93;;;10.50;89.90;;;;;;5048248;28;19995;-67
2021/04/13 12:54:07;;;;;;;;;;;10.50;90.20;;;;;;5048844;28;20562;-67
2021/04/13 12:56:33;;;;;;;9.45;4.15;;;10.50;90.10;;;;;;5048413;28;19951;-68
2021/04/13 12:59:10;;;;;;;;;;;10.40;90.10;;;;;;5048406;28;20509;-67
2021/04/13 13:01:40;;;;;;;7.22;4.88;;;10.30;90.10;;;;;;5047239;28;19909;-66
2021/04/13 13:04:12;;;;;;;8.77;5.53;;;10.30;90.20;;;;;;5047520;28;20021;-67
2021/04/13 13:06:47;;;;;;;10.75;5.50;;;10.30;90.40;;;;;;5047601;28;20041;-67
2021/04/13 13:09:25;;;;;;;12.88;6.45;;;10.30;90.30;;;;;;5048025;28;20048;-67
2021/04/13 13:12:07;;;;;;;9.48;5.50;;;10.30;90.20;;;;;;5048151;28;20029;-67
2021/04/13 13:14:39;;;;;;;7.07;4.28;;;10.30;90.10;;;;;;5048066;28;20029;-67
2021/04/13 13:17:05;;;;;;;6.72;4.40;;;10.20;90.20;;;;;;5048090;28;20033;-67
2021/04/13 13:19:49;;;;;;;7.40;4.60;;;10.20;90.40;;;;;;5051458;28;20490;-67
2021/04/13 13:22:22;;;;;;;7.72;4.25;;;10.20;90.10;;;;;;5052052;28;20463;-67
2021/04/13 13:24:51;;;;;;;6.80;4.43;;;10.20;90.30;;;;;;5052028;28;20107;-65
2021/04/13 13:27:30;;;;;;;9.60;5.93;;;10.10;90.40;;;;;;5051783;28;20533;-67
2021/04/13 13:29:58;;;;;;;9.10;5.85;;;10.10;90.50;;;;;;5051831;28;20036;-67
2021/04/13 13:32:26;;;;;;;9.60;4.97;;;10.10;90.60;;;;;;5051933;28;20052;-66
2021/04/13 13:35:00;;;;;;;9.88;5.15;;;10.10;90.70;;;;;;5051900;28;20021;-67
2021/04/13 13:37:47;;;;;;;12.48;8.48;;;10.00;90.80;;;;;;5051880;28;20122;-67
2021/04/13 13:40:25;;;;;;;13.88;9.32;;;10.10;90.90;;;;;;5051650;28;20021;-67
2021/04/13 13:42:54;;;;;;;12.70;5.35;;;10.00;90.80;;;;;;5051728;28;20155;-67